This demonstration page uses our WeatherBlox Daily Observations layout. Learn more.

Left ArrowRight Arrow

36.17497, -115.13722

Hourly Observations for March 20, 2016

Temp ( °F °C ) Dew Point ( °F °C ) Humidity (%) Winds ( mph kmh ) Pressure ( in mb ) Visibility ( mi km ) Precip ( " mm )
12:53 am 00:53 Clear 62 16.7 26 -3.3 25 25 NW 6 9 29.98 1015 10 16.0934 0 0
1:53 am 01:53 Clear 61 16 25 -4 25 25 Calm 29.97 1015 10 16.0934 0 0
2:53 am 02:53 Clear 60 15.6 26 -3.3 27 27 NNW 5 7 29.98 1015 10 16.0934 0 0
3:53 am 03:53 Clear 59 15 25 -3.9 27 27 WNW 5 7 29.98 1015 10 16.0934 0 0
4:53 am 04:53 Clear 57 13.9 26 -3.3 30 30 NNW 3 6 29.99 1016 10 16.0934 0 0
5:53 am 05:53 Clear 55 12.8 27 -2.8 34 34 N 5 7 30 1016 10 16.0934 0 0
7:53 am 07:53 Sunny 62 16.7 25 -3.9 24 24 Calm 30.05 1018 10 16.0934 0 0
9:53 am 09:53 Sunny 69 20.6 23 -5 17 17 SE 8 13 30.06 1018 10 16.0934 0 0
11:53 am 11:53 Sunny 76 24.4 24 -4.4 14 14 SE 9 15 30.04 1017 10 16.0934 0 0
1:53 pm 13:53 Sunny 82 27.8 23 -5 11 11 S 10 17 29.97 1015 10 16.0934 0 0
2:53 pm 14:53 Sunny 84 28.9 24 -4.4 11 11 SE 13 20 29.93 1014 10 16.0934 0 0
3:53 pm 15:53 Sunny 85 29.4 16 -8.9 7 7 SSW 14 22 29.92 1013 10 16.0934 0 0
4:53 pm 16:53 Sunny 83 28.3 9 -12.8 6 6 SW 16 26 29.91 1013 10 16.0934 0 0
5:53 pm 17:53 Sunny 82 27.8 9 -12.8 6 6 WSW 12 19 29.92 1013 10 16.0934 0 0
6:53 pm 18:53 Clear 80 26.7 11 -11.7 7 7 WSW 14 22 29.91 1013 10 16.0934 0 0
7:53 pm 19:53 Clear 77 25 14 -10 9 9 SW 10 17 29.93 1014 10 16.0934 0 0
8:53 pm 20:53 Clear 76 24.4 15 -9.4 10 10 VRB 6 9 29.94 1014 10 16.0934 0 0
9:53 pm 21:53 Clear 74 23.3 17 -8.3 11 11 SSW 14 22 29.95 1014 10 16.0934 0 0
10:53 pm 22:53 Clear 75 23.9 17 -8.3 11 11 S 15 24 29.96 1014 10 16.0934 0 0
11:53 pm 23:53 Clear 72 22.2 17 -8.3 12 12 S 8 13 29.96 1015 10 16.0934 0 0

Powered by AerisWeather